Current | Forecast
Updated: 12:00 AM CEST on June 24, 2017
Observed at Pau, France
Temperature 19°C
Humidity 94%
Dew Point 18°C
Wind WSW at 7 km/h
Pressure 1024 hPa (Steady)
Conditions Overcast
Visibility 9.0 kilometers
UV 0 out of 16
Clouds Mostly Cloudy (BKN) : 487 m
Overcast (OVC) : 670 m
Yesterday's Maximum 23°C
Yesterday's Minimum 18°C approx.
Yesterday's Cooling Degree Days 4 approx.
Sunrise6:23 AM CEST
Sunset9:45 PM CEST
Moon Rise6:53 AM CEST
Moon Set10:02 PM CEST
Moon PhaseMoon Phase
Waning Crescent
Raw METARMETAR LFBP 232200Z AUTO 25004KT 9000 BKN016 OVC022 19/18 Q1024 TEMPO 4000 -DZ BR OVC005


Monday
. High: 66° F.
Tuesday
. High: 69° F.
Wednesday
. High: 57° F.
Thursday
. High: 57° F.
Friday
. High: 69° F.
Saturday
. High: 62° F.
Sunday
. High: 60° F.
Monday
. High: 69° F.

Units: English | Metric

Find the Weather for any City, State or Zipcode, or Country:

U.S. State List | Severe Weather | Tropical Storms | Ski Conditions
United States | Canada | Central America | South America | Asia | Europe | Australia | Africa | Islands

Weather Underground

© Copyright 2017
The Weather Company, LLC